createdAt,value
2023-03-16T17:44:05.434Z,1.77
2023-03-16T17:47:19.687Z,1.70
2023-03-16T17:50:29.274Z,3.17
2023-03-16T17:53:31.158Z,3.92
2023-03-16T17:56:33.599Z,5.53
2023-03-16T17:59:35.272Z,5.80
2023-03-16T18:02:42.187Z,5.50
2023-03-16T18:05:44.904Z,5.35
2023-03-16T18:08:48.539Z,4.95
2023-03-16T18:11:51.292Z,4.95
2023-03-16T18:14:58.382Z,5.03
2023-03-16T18:18:00.674Z,4.55
2023-03-16T18:21:02.696Z,4.40
2023-03-16T18:24:15.708Z,4.43
2023-03-16T18:27:17.188Z,4.40
2023-03-16T18:30:19.519Z,4.32
2023-03-16T18:33:33.567Z,4.40
2023-03-16T18:36:36.725Z,4.25
2023-03-16T18:39:38.288Z,3.95
2023-03-16T18:42:39.971Z,4.00
2023-03-16T18:45:41.511Z,4.63
2023-03-16T18:48:43.006Z,3.92
2023-03-16T18:51:49.848Z,4.03
2023-03-16T18:54:52.942Z,3.88
2023-03-16T18:57:56.458Z,3.97
2023-03-16T19:00:59.741Z,4.60
2023-03-16T19:04:02.137Z,12.63
2023-03-16T19:07:05.441Z,14.93
2023-03-16T19:10:21.435Z,12.25
2023-03-16T19:13:24.686Z,12.73
2023-03-16T19:16:27.009Z,12.38
2023-03-16T19:19:28.582Z,12.27
2023-03-16T19:22:30.073Z,11.07
2023-03-16T19:25:37.215Z,11.30
2023-03-16T19:28:41.558Z,11.43
2023-03-16T19:31:43.254Z,11.18
2023-03-16T19:34:44.985Z,10.07
2023-03-16T19:37:46.932Z,10.60
2023-03-16T19:40:54.286Z,10.52
2023-03-16T19:43:58.013Z,10.02
2023-03-16T19:47:00.837Z,9.52
2023-03-16T19:50:06.152Z,9.52
2023-03-16T19:53:17.354Z,8.52
2023-03-16T19:56:20.862Z,8.43
2023-03-16T19:59:26.581Z,8.85
2023-03-16T20:02:40.801Z,8.65
2023-03-16T20:05:42.562Z,8.10
2023-03-16T20:08:44.844Z,7.60
2023-03-16T20:11:48.030Z,8.65
2023-03-16T20:14:51.256Z,8.40
2023-03-16T20:17:52.844Z,7.55
2023-03-16T20:20:54.351Z,8.15
2023-03-16T20:23:56.669Z,7.55
2023-03-16T20:26:58.213Z,7.43
2023-03-16T20:29:59.759Z,7.00
2023-03-16T20:33:01.332Z,7.72
2023-03-16T20:36:03.010Z,6.95
2023-03-16T20:39:04.603Z,6.78
2023-03-16T20:42:15.596Z,6.63
2023-03-16T20:45:23.550Z,6.22
2023-03-16T20:48:25.939Z,7.32
2023-03-16T20:51:28.747Z,6.63
2023-03-16T20:54:30.277Z,6.50
2023-03-16T20:57:32.252Z,6.40
2023-03-16T21:00:36.827Z,6.00
2023-03-16T21:03:39.362Z,6.80
2023-03-16T21:06:41.265Z,6.53
2023-03-16T21:09:49.916Z,5.97
2023-03-16T21:12:54.888Z,6.00
2023-03-16T21:15:59.617Z,5.70
2023-03-16T21:19:01.237Z,5.65
2023-03-16T21:22:02.728Z,5.80
2023-03-16T21:25:04.508Z,5.60
2023-03-16T21:28:06.045Z,5.18
2023-03-16T21:31:08.333Z,5.03
2023-03-16T21:34:23.722Z,5.53
2023-03-16T21:37:25.378Z,5.13
2023-03-16T21:40:27.482Z,5.10
2023-03-16T21:43:29.430Z,5.35
2023-03-16T21:46:31.242Z,4.63
2023-03-16T21:49:32.839Z,4.75
2023-03-16T21:52:34.391Z,5.13
2023-03-16T21:55:35.907Z,5.22
2023-03-16T21:58:37.397Z,4.70
2023-03-16T22:01:50.958Z,4.35
2023-03-16T22:04:56.737Z,4.35
2023-03-16T22:07:59.809Z,4.75
2023-03-16T22:11:01.920Z,4.60
2023-03-16T22:14:03.409Z,4.38
2023-03-16T22:17:06.246Z,4.10
2023-03-16T22:20:22.534Z,4.05
2023-03-16T22:23:30.818Z,3.83
2023-03-16T22:26:33.070Z,4.72
2023-03-16T22:29:34.756Z,4.07
2023-03-16T22:32:36.366Z,4.18
2023-03-16T22:35:38.421Z,4.03
2023-03-16T22:38:41.396Z,3.90
2023-03-16T22:41:42.960Z,3.92
2023-03-16T22:44:44.421Z,3.83
2023-03-16T22:47:47.663Z,4.18
2023-03-16T22:50:50.329Z,3.60
2023-03-16T22:53:55.950Z,3.75
2023-03-16T22:56:57.611Z,3.33
2023-03-16T23:00:00.685Z,3.88
2023-03-16T23:03:02.215Z,3.55
2023-03-16T23:06:03.994Z,3.80
2023-03-16T23:09:06.037Z,3.45
2023-03-16T23:12:20.947Z,3.20
2023-03-16T23:15:25.631Z,3.35
2023-03-16T23:18:27.202Z,3.40
2023-03-16T23:21:29.800Z,3.50
2023-03-16T23:24:35.497Z,3.85
2023-03-16T23:27:37.054Z,2.90
2023-03-16T23:30:39.853Z,3.20
2023-03-16T23:33:42.076Z,3.40
2023-03-16T23:36:43.950Z,3.10
2023-03-16T23:39:45.684Z,2.83
2023-03-16T23:42:48.263Z,2.95
2023-03-16T23:45:49.813Z,2.90
2023-03-16T23:48:53.365Z,3.15
2023-03-16T23:51:56.854Z,3.10
2023-03-16T23:54:59.297Z,3.15
2023-03-16T23:58:01.614Z,3.10
